Time;durP1;ratioP1;P1;durP2;ratioP2;P2;SDS_P1;SDS_P2;PMS_P1;PMS_P2;Temp;Humidity;BMP_temperature;BMP_pressure;BME280_temperature;BME280_humidity;BME280_pressure;Samples;Min_cycle;Max_cycle;Signal;HPM_P1;HPM_P2
2021/12/28 00:01:41;;;;;;;53.50;22.00;;;;;;;-5.90;67.62;99919.51;126413;1311;108944;-75
2021/12/28 00:04:47;;;;;;;50.70;21.10;;;;;;;-5.89;67.95;99920.38;126373;1311;108718;-76
2021/12/28 00:07:53;;;;;;;44.40;19.40;;;;;;;-5.86;67.84;99918.85;126277;1316;107738;-75
2021/12/28 00:10:58;;;;;;;42.90;19.20;;;;;;;-5.83;68.00;99922.37;126345;1312;108833;-76
2021/12/28 00:14:06;;;;;;;45.00;18.90;;;;;;;-5.79;68.01;99922.40;126344;1317;108791;-72
2021/12/28 00:20:38;;;;;;;42.90;18.40;;;;;;;-5.73;67.91;99913.48;126282;1312;107549;-76
2021/12/28 00:23:43;;;;;;;40.20;17.80;;;;;;;-5.69;67.96;99914.92;126320;1312;109128;-75
2021/12/28 00:26:49;;;;;;;45.90;18.50;;;;;;;-5.67;67.72;99918.64;126308;1312;107371;-75
2021/12/28 00:29:55;;;;;;;40.70;17.40;;;;;;;-5.64;68.05;99912.64;126348;1315;108713;-77
2021/12/28 00:33:00;;;;;;;39.50;16.90;;;;;;;-5.63;67.73;99914.33;126351;1312;107849;-77
2021/12/28 00:36:06;;;;;;;42.60;17.30;;;;;;;-5.61;67.99;99914.94;126363;1311;107315;-76
2021/12/28 00:39:12;;;;;;;38.80;17.30;;;;;;;-5.58;67.73;99921.08;126319;1312;108854;-76
2021/12/28 00:42:17;;;;;;;38.20;17.10;;;;;;;-5.54;68.07;99919.52;126376;1314;108896;-78
2021/12/28 00:45:23;;;;;;;35.30;16.50;;;;;;;-5.50;68.39;99917.13;126390;1310;107821;-76
2021/12/28 00:48:28;;;;;;;38.00;16.30;;;;;;;-5.48;68.11;99911.50;126318;1311;108955;-78
2021/12/28 00:51:34;;;;;;;35.50;16.60;;;;;;;-5.45;68.00;99912.77;126309;1314;108839;-77
2021/12/28 00:54:39;;;;;;;37.30;17.40;;;;;;;-5.42;68.20;99914.40;126367;1310;108799;-76
2021/12/28 00:57:45;;;;;;;36.60;16.50;;;;;;;-5.40;68.36;99913.08;126408;1310;108913;-76
2021/12/28 01:00:52;;;;;;;30.60;15.10;;;;;;;-5.36;68.14;99913.45;126429;1312;107205;-77
2021/12/28 01:03:57;;;;;;;35.60;15.50;;;;;;;-5.33;68.32;99915.25;126452;1315;109077;-76
2021/12/28 01:07:03;;;;;;;33.60;15.00;;;;;;;-5.28;68.16;99912.61;126376;1312;107812;-77
2021/12/28 01:10:12;;;;;;;37.50;15.70;;;;;;;-5.16;68.00;99912.81;126437;1317;108954;-78
2021/12/28 01:13:18;;;;;;;33.30;14.90;;;;;;;-5.03;68.12;99910.40;126327;1311;108859;-76
2021/12/28 01:16:24;;;;;;;36.40;15.20;;;;;;;-4.90;68.37;99903.61;126387;1311;108951;-76
2021/12/28 01:19:29;;;;;;;38.70;15.40;;;;;;;-4.82;67.84;99898.95;126381;1310;109036;-78
2021/12/28 01:22:35;;;;;;;35.20;16.10;;;;;;;-4.76;68.20;99888.60;126336;1315;108839;-75
2021/12/28 01:25:41;;;;;;;39.20;16.80;;;;;;;-4.71;68.02;99878.38;126412;1310;107789;-74
2021/12/28 01:28:47;;;;;;;42.10;17.30;;;;;;;-4.72;67.78;99873.73;126449;1315;108973;-76
2021/12/28 01:31:53;;;;;;;39.00;16.50;;;;;;;-4.75;68.02;99870.52;126323;1310;108717;-75
2021/12/28 01:34:58;;;;;;;36.30;15.40;;;;;;;-4.78;67.90;99874.13;126294;1311;108901;-75
2021/12/28 01:38:04;;;;;;;37.80;16.20;;;;;;;-4.84;68.14;99869.34;126340;1311;109192;-76
2021/12/28 01:41:10;;;;;;;40.00;16.70;;;;;;;-4.91;68.30;99866.89;126394;1311;108992;-75
2021/12/28 01:44:16;;;;;;;42.70;17.40;;;;;;;-4.99;68.24;99862.19;126445;1310;109709;-76
2021/12/28 01:47:22;;;;;;;40.10;17.80;;;;;;;-5.07;68.16;99859.22;126454;1315;108440;-75
2021/12/28 01:50:28;;;;;;;40.90;17.10;;;;;;;-5.14;68.18;99861.08;126460;1317;109035;-75
2021/12/28 01:53:34;;;;;;;33.70;15.80;;;;;;;-5.18;68.30;99859.86;126326;1311;108995;-76
2021/12/28 01:56:44;;;;;;;35.10;16.60;;;;;;;-5.22;68.14;99852.56;126292;1310;107734;-75
2021/12/28 01:59:51;;;;;;;47.00;19.10;;;;;;;-5.24;67.96;99852.80;126354;1310;108804;-76
2021/12/28 02:02:57;;;;;;;85.60;30.60;;;;;;;-5.24;68.19;99851.07;126341;1312;108914;-77
2021/12/28 02:06:03;;;;;;;58.70;23.70;;;;;;;-5.29;68.13;99850.40;126319;1315;108748;-74
2021/12/28 02:09:09;;;;;;;57.40;22.30;;;;;;;-5.32;68.12;99845.84;126365;1312;108512;-76
2021/12/28 02:12:14;;;;;;;49.00;21.40;;;;;;;-5.33;68.11;99842.95;126309;1311;108062;-76
2021/12/28 02:15:20;;;;;;;50.30;21.40;;;;;;;-5.33;68.34;99842.09;126343;1315;107986;-75
2021/12/28 02:18:27;;;;;;;43.10;19.20;;;;;;;-5.32;68.34;99837.52;124379;1315;2727602;-74
2021/12/28 02:21:33;;;;;;;36.70;16.20;;;;;;;-5.31;68.43;99834.39;126417;1311;108758;-72
2021/12/28 02:24:38;;;;;;;42.50;18.80;;;;;;;-5.29;68.22;99833.59;126359;1315;108750;-76
2021/12/28 02:27:44;;;;;;;33.80;16.50;;;;;;;-5.32;68.61;99829.71;126446;1311;107756;-75
2021/12/28 02:30:54;;;;;;;37.60;18.50;;;;;;;-5.32;68.36;99822.60;126414;1312;109344;-78
2021/12/28 02:34:02;;;;;;;32.20;15.40;;;;;;;-5.27;68.31;99820.19;126460;1312;107000;-77
2021/12/28 02:37:07;;;;;;;31.60;14.50;;;;;;;-5.19;68.39;99814.63;126441;1310;107709;-79
2021/12/28 02:40:16;;;;;;;35.30;16.10;;;;;;;-5.10;68.77;99815.48;126405;1312;109135;-79
2021/12/28 02:43:22;;;;;;;36.30;16.90;;;;;;;-5.02;68.82;99805.58;126457;1312;108825;-79
2021/12/28 02:46:28;;;;;;;33.80;16.00;;;;;;;-4.97;68.70;99800.34;126460;1315;108586;-77
2021/12/28 02:49:36;;;;;;;34.00;16.30;;;;;;;-4.97;68.42;99801.55;126378;1311;107876;-78
2021/12/28 02:52:42;;;;;;;33.90;14.70;;;;;;;-4.97;68.42;99801.39;126299;1310;108768;-78
2021/12/28 02:55:49;;;;;;;36.60;15.80;;;;;;;-4.98;68.47;99797.27;126339;1317;108963;-76
2021/12/28 02:58:55;;;;;;;31.90;14.90;;;;;;;-5.00;68.81;99790.23;126335;1312;107901;-78
2021/12/28 03:02:00;;;;;;;33.20;15.50;;;;;;;-5.01;68.59;99788.72;126402;1310;109134;-77
2021/12/28 03:05:07;;;;;;;34.50;15.50;;;;;;;-5.03;68.66;99789.83;126330;1311;108939;-78
2021/12/28 03:08:14;;;;;;;35.00;16.00;;;;;;;-5.05;68.93;99792.55;126311;1312;107862;-77
2021/12/28 03:11:20;;;;;;;36.20;16.70;;;;;;;-5.06;68.88;99795.19;126480;1310;109327;-78
2021/12/28 03:14:25;;;;;;;36.50;16.70;;;;;;;-5.08;68.79;99791.81;126364;1311;109051;-81
2021/12/28 03:17:31;;;;;;;36.40;16.00;;;;;;;-5.10;69.18;99789.79;126380;1311;108947;-83
2021/12/28 03:20:37;;;;;;;41.80;17.00;;;;;;;-5.11;69.09;99792.82;126392;1311;108816;-73
2021/12/28 03:23:44;;;;;;;35.40;16.10;;;;;;;-5.14;68.92;99791.51;126261;1310;108732;-80
2021/12/28 03:26:49;;;;;;;39.30;17.00;;;;;;;-5.14;69.12;99788.39;126313;1312;109024;-79
2021/12/28 03:29:55;;;;;;;31.90;15.30;;;;;;;-5.09;68.98;99786.64;126310;1315;109109;-79
2021/12/28 03:33:00;;;;;;;36.50;15.60;;;;;;;-5.00;69.23;99786.94;126405;1312;108930;-76
2021/12/28 03:36:08;;;;;;;32.70;14.10;;;;;;;-4.88;69.01;99786.27;126391;1310;109054;-74
2021/12/28 03:39:13;;;;;;;35.50;14.90;;;;;;;-4.77;68.79;99783.88;126422;1314;108945;-75
2021/12/28 03:42:19;;;;;;;34.60;15.70;;;;;;;-4.71;68.66;99780.66;126385;1314;108901;-75
2021/12/28 03:45:25;;;;;;;36.80;16.80;;;;;;;-4.69;68.80;99772.59;126421;1310;108710;-75
2021/12/28 03:48:30;;;;;;;35.70;16.20;;;;;;;-4.69;68.72;99766.00;126393;1310;108884;-74
2021/12/28 03:51:35;;;;;;;33.80;15.90;;;;;;;-4.70;68.86;99765.51;126368;1311;108955;-75
2021/12/28 03:54:41;;;;;;;34.00;15.20;;;;;;;-4.72;68.99;99761.44;126371;1312;107631;-75
2021/12/28 03:57:47;;;;;;;38.20;16.10;;;;;;;-4.79;68.91;99769.17;126486;1312;108832;-74
2021/12/28 04:00:53;;;;;;;36.90;16.20;;;;;;;-4.82;69.48;99767.27;126431;1311;108714;-75
2021/12/28 04:03:58;;;;;;;35.00;16.10;;;;;;;-4.86;69.64;99768.98;126375;1315;108879;-77
2021/12/28 04:07:07;;;;;;;37.40;17.10;;;;;;;-4.87;69.48;99769.05;126536;1312;108885;-75
2021/12/28 04:10:15;;;;;;;33.30;15.70;;;;;;;-4.88;69.34;99770.65;126480;1312;109028;-76
2021/12/28 04:13:23;;;;;;;39.10;16.90;;;;;;;-4.90;69.26;99769.38;126769;1311;108748;-76
2021/12/28 04:16:30;;;;;;;55.20;21.00;;;;;;;-4.93;69.37;99766.68;127795;1311;108665;-82
2021/12/28 04:19:35;;;;;;;47.00;21.40;;;;;;;-4.97;69.86;99765.15;126445;1309;109032;-77
2021/12/28 04:22:42;;;;;;;35.10;16.60;;;;;;;-5.02;69.97;99758.94;126259;1310;106968;-77
2021/12/28 04:25:48;;;;;;;66.30;26.10;;;;;;;-5.02;69.63;99759.44;126283;1311;108903;-77
2021/12/28 04:28:53;;;;;;;44.10;19.40;;;;;;;-4.97;69.98;99759.58;126283;1312;106928;-77
2021/12/28 04:31:59;;;;;;;45.20;22.90;;;;;;;-4.89;70.16;99759.94;126292;1312;108864;-78
2021/12/28 04:35:05;;;;;;;32.60;15.20;;;;;;;-4.82;69.83;99754.77;126322;1310;108775;-79
2021/12/28 04:38:11;;;;;;;44.30;18.60;;;;;;;-4.74;69.92;99751.29;126610;1311;108801;-76
2021/12/28 04:41:17;;;;;;;37.40;16.90;;;;;;;-4.70;69.95;99753.19;126405;1310;108816;-79
2021/12/28 04:44:25;;;;;;;31.50;15.30;;;;;;;-4.70;69.94;99749.53;126460;1311;108526;-77
2021/12/28 04:47:30;;;;;;;37.10;18.20;;;;;;;-4.70;69.79;99744.14;126430;1310;108681;-78
2021/12/28 04:50:39;;;;;;;33.70;15.40;;;;;;;-4.71;70.08;99740.56;126428;1310;108950;-77
2021/12/28 04:53:45;;;;;;;36.00;16.60;;;;;;;-4.73;70.13;99738.73;126382;1310;109049;-77
2021/12/28 04:56:51;;;;;;;36.60;16.70;;;;;;;-4.78;70.15;99735.67;126448;1312;106779;-77
2021/12/28 04:59:56;;;;;;;33.70;17.00;;;;;;;-4.80;70.24;99738.35;126422;1311;108838;-77
2021/12/28 05:03:02;;;;;;;36.70;17.90;;;;;;;-4.83;70.24;99740.05;126399;1312;108940;-80
2021/12/28 05:06:08;;;;;;;42.00;19.50;;;;;;;-4.85;70.43;99738.79;126584;1310;108855;-77
2021/12/28 05:09:15;;;;;;;32.20;15.10;;;;;;;-4.87;70.25;99736.75;126628;1310;108944;-79
2021/12/28 05:12:20;;;;;;;42.20;19.70;;;;;;;-4.83;70.45;99742.85;126742;1313;108452;-77
2021/12/28 05:15:26;;;;;;;32.50;14.80;;;;;;;-4.76;70.76;99741.30;126542;1312;108924;-80
2021/12/28 05:18:31;;;;;;;32.10;14.80;;;;;;;-4.68;70.17;99740.08;126676;1309;106776;-75
2021/12/28 05:21:39;;;;;;;32.70;14.90;;;;;;;-4.56;70.33;99737.12;126456;1309;108929;-76
2021/12/28 05:24:45;;;;;;;29.80;14.60;;;;;;;-4.50;69.96;99734.24;126509;1310;108907;-77
2021/12/28 05:27:51;;;;;;;31.70;15.00;;;;;;;-4.47;70.48;99733.73;126358;1311;108832;-74
2021/12/28 05:30:56;;;;;;;31.70;15.30;;;;;;;-4.42;70.46;99733.86;126370;1311;108952;-75
2021/12/28 05:34:02;;;;;;;33.60;15.80;;;;;;;-4.40;70.19;99729.59;126329;1312;108816;-77
2021/12/28 05:37:07;;;;;;;38.60;18.00;;;;;;;-4.41;70.16;99732.77;126353;1311;108876;-77
2021/12/28 05:40:14;;;;;;;37.30;16.80;;;;;;;-4.39;70.23;99735.80;126530;1309;108895;-77
2021/12/28 05:43:19;;;;;;;32.50;16.30;;;;;;;-4.40;70.28;99738.98;126858;1311;108747;-78
2021/12/28 05:46:25;;;;;;;29.50;14.70;;;;;;;-4.44;70.22;99738.44;126795;1311;108914;-77
2021/12/28 05:49:30;;;;;;;32.20;15.90;;;;;;;-4.44;70.39;99738.46;127766;1311;108235;-80
2021/12/28 05:52:36;;;;;;;31.00;14.70;;;;;;;-4.45;70.53;99737.83;126513;1311;108904;-81
2021/12/28 05:55:41;;;;;;;27.10;13.20;;;;;;;-4.48;70.79;99732.73;126557;1311;108726;-77
2021/12/28 05:58:46;;;;;;;30.00;13.80;;;;;;;-4.48;70.85;99728.58;126406;1311;107657;-79
2021/12/28 06:01:52;;;;;;;26.80;14.30;;;;;;;-4.45;70.93;99726.54;126474;1312;109041;-78
2021/12/28 06:04:57;;;;;;;29.40;14.30;;;;;;;-4.35;70.88;99724.15;126524;1312;108912;-78
2021/12/28 06:08:03;;;;;;;25.40;13.40;;;;;;;-4.22;71.21;99720.41;126543;1311;108772;-77
2021/12/28 06:11:12;;;;;;;23.10;12.60;;;;;;;-4.13;71.02;99721.59;126508;1316;108926;-78
2021/12/28 06:14:18;;;;;;;28.20;13.30;;;;;;;-4.08;71.38;99726.70;126406;1310;107475;-76
2021/12/28 06:17:23;;;;;;;44.00;19.70;;;;;;;-4.07;71.23;99733.25;126394;1311;108869;-78
2021/12/28 06:20:29;;;;;;;34.90;16.50;;;;;;;-4.08;70.92;99738.34;126445;1312;109278;-77
2021/12/28 06:23:35;;;;;;;27.40;13.60;;;;;;;-4.04;71.30;99735.05;126605;1312;107838;-77
2021/12/28 06:26:40;;;;;;;27.70;14.40;;;;;;;-4.07;71.45;99736.21;126596;1311;108978;-76
2021/12/28 06:29:46;;;;;;;42.30;17.60;;;;;;;-4.11;71.28;99732.23;126442;1312;109136;-77
2021/12/28 06:32:51;;;;;;;37.40;15.40;;;;;;;-4.13;71.62;99725.05;126373;1311;108833;-76
2021/12/28 06:35:57;;;;;;;34.60;14.70;;;;;;;-4.16;71.40;99722.40;126345;1312;108791;-77
2021/12/28 06:39:03;;;;;;;62.00;18.80;;;;;;;-4.18;71.65;99712.41;126675;1310;108958;-76
2021/12/28 06:42:09;;;;;;;43.70;16.30;;;;;;;-4.17;71.62;99702.98;126514;1311;108749;-75
2021/12/28 06:45:14;;;;;;;42.30;16.80;;;;;;;-4.10;71.51;99695.71;126537;1311;108799;-74
2021/12/28 06:48:20;;;;;;;42.20;15.40;;;;;;;-4.01;71.62;99697.70;126482;1312;107913;-74
2021/12/28 06:51:25;;;;;;;52.30;17.50;;;;;;;-3.94;71.62;99704.35;126554;1310;107042;-72
2021/12/28 06:54:36;;;;;;;49.60;16.60;;;;;;;-3.91;71.58;99712.86;126407;1311;108769;-74
2021/12/28 06:57:42;;;;;;;34.30;15.10;;;;;;;-3.86;71.72;99716.98;126519;1311;108831;-74
2021/12/28 07:00:47;;;;;;;47.60;17.00;;;;;;;-3.82;71.59;99719.92;126349;1312;109011;-75
2021/12/28 07:03:53;;;;;;;49.80;17.60;;;;;;;-3.83;71.72;99728.13;126348;1311;108959;-77
2021/12/28 07:06:58;;;;;;;29.30;14.00;;;;;;;-3.83;71.60;99734.55;126343;1315;109007;-76
2021/12/28 07:10:04;;;;;;;28.00;13.00;;;;;;;-3.85;71.73;99736.39;126430;1312;108964;-75
2021/12/28 07:13:10;;;;;;;30.70;13.70;;;;;;;-3.84;71.70;99734.98;126410;1312;106834;-76
2021/12/28 07:16:16;;;;;;;33.70;14.60;;;;;;;-3.84;71.67;99734.27;126321;1310;108578;-77
2021/12/28 07:19:21;;;;;;;26.80;13.10;;;;;;;-3.87;71.93;99732.64;126277;1311;108767;-75
2021/12/28 07:22:27;;;;;;;33.30;13.20;;;;;;;-3.81;71.90;99736.56;126334;1315;107758;-75
2021/12/28 07:25:32;;;;;;;27.00;12.30;;;;;;;-3.74;71.80;99735.30;126594;1311;109011;-76
2021/12/28 07:28:38;;;;;;;29.40;13.50;;;;;;;-3.62;71.89;99732.98;126467;1315;108864;-76
2021/12/28 07:31:43;;;;;;;37.50;15.40;;;;;;;-3.52;71.74;99727.11;126457;1311;108759;-75
2021/12/28 07:34:49;;;;;;;24.30;13.00;;;;;;;-3.45;71.54;99719.99;126437;1311;109010;-76
2021/12/28 07:37:54;;;;;;;28.20;13.00;;;;;;;-3.42;71.50;99720.70;126423;1311;106913;-77
2021/12/28 07:40:59;;;;;;;22.60;11.70;;;;;;;-3.39;71.61;99713.95;126484;1310;108784;-83
2021/12/28 07:44:07;;;;;;;28.20;13.70;;;;;;;-3.38;71.54;99712.86;126636;1309;106862;-81
2021/12/28 07:47:12;;;;;;;26.10;12.70;;;;;;;-3.38;71.46;99702.05;126795;1311;108711;-82
2021/12/28 07:50:20;;;;;;;27.70;13.80;;;;;;;-3.39;71.41;99704.73;126685;1312;109020;-81
2021/12/28 07:53:25;;;;;;;24.10;12.60;;;;;;;-3.39;71.44;99702.47;126702;1315;108725;-80
2021/12/28 07:56:31;;;;;;;24.80;13.00;;;;;;;-3.37;71.52;99692.95;126801;1311;108978;-77
2021/12/28 07:59:36;;;;;;;24.30;12.60;;;;;;;-3.36;71.49;99698.48;126501;1310;108772;-81
2021/12/28 08:02:43;;;;;;;28.30;13.20;;;;;;;-3.31;71.44;99693.19;126608;1311;108842;-77
2021/12/28 08:05:49;;;;;;;22.90;11.30;;;;;;;-3.25;71.55;99688.19;126663;1311;109176;-76
2021/12/28 08:08:55;;;;;;;24.60;11.90;;;;;;;-3.15;71.31;99689.73;126777;1311;108867;-75
2021/12/28 08:12:01;;;;;;;21.70;11.00;;;;;;;-3.02;71.39;99692.55;126610;1310;108723;-84
2021/12/28 08:15:08;;;;;;;19.20;10.60;;;;;;;-2.91;71.26;99691.63;126547;1312;108927;-83
2021/12/28 08:18:13;;;;;;;23.40;11.50;;;;;;;-2.85;71.22;99691.28;126312;1312;109060;-83
2021/12/28 08:21:20;;;;;;;21.00;11.20;;;;;;;-2.80;71.17;99695.89;126716;1311;107372;-82
2021/12/28 08:24:25;;;;;;;18.40;10.70;;;;;;;-2.78;70.97;99698.05;126527;1310;107805;-79
2021/12/28 08:27:31;;;;;;;18.40;10.10;;;;;;;-2.78;71.09;99699.77;126473;1311;107948;-77
2021/12/28 08:30:38;;;;;;;18.50;10.80;;;;;;;-2.79;71.00;99696.18;126531;1311;107760;-77
2021/12/28 08:33:43;;;;;;;18.50;10.70;;;;;;;-2.78;71.00;99697.69;126578;1312;109366;-78
2021/12/28 08:36:50;;;;;;;18.80;10.60;;;;;;;-2.73;71.17;99702.30;126387;1315;108693;-78
2021/12/28 08:39:56;;;;;;;23.00;11.90;;;;;;;-2.69;70.94;99695.17;126671;1310;108934;-76
2021/12/28 08:43:01;;;;;;;20.30;11.80;;;;;;;-2.70;70.85;99681.27;126666;1311;109042;-78
2021/12/28 08:46:07;;;;;;;24.20;12.50;;;;;;;-2.73;71.08;99673.59;126678;1312;108700;-76
2021/12/28 08:49:12;;;;;;;27.70;14.40;;;;;;;-2.71;70.90;99667.22;126566;1314;107762;-76
2021/12/28 08:52:17;;;;;;;46.70;17.60;;;;;;;-2.69;71.00;99663.14;126692;1311;109127;-76
2021/12/28 08:55:24;;;;;;;28.10;14.70;;;;;;;-2.64;70.86;99668.44;126733;1316;107888;-82
2021/12/28 08:58:29;;;;;;;38.70;17.20;;;;;;;-2.57;70.95;99682.30;126674;1310;108799;-78
2021/12/28 09:01:35;;;;;;;28.70;13.30;;;;;;;-2.46;70.86;99675.10;126363;1311;107257;-77
2021/12/28 09:04:43;;;;;;;25.90;13.60;;;;;;;-2.37;70.58;99667.98;126685;1312;108999;-76
2021/12/28 09:07:49;;;;;;;31.30;15.00;;;;;;;-2.28;70.67;99648.15;126620;1312;108743;-77
2021/12/28 09:10:55;;;;;;;32.10;16.90;;;;;;;-2.27;70.50;99634.14;126671;1315;107541;-79
2021/12/28 09:14:00;;;;;;;32.70;18.30;;;;;;;-2.25;70.44;99638.36;126604;1311;108761;-77
2021/12/28 09:17:07;;;;;;;40.90;18.50;;;;;;;-2.20;70.43;99636.36;126573;1310;108798;-77
2021/12/28 09:20:16;;;;;;;42.90;18.10;;;;;;;-2.17;70.25;99636.20;126609;1312;108779;-78
2021/12/28 09:23:21;;;;;;;22.70;14.20;;;;;;;-2.16;70.17;99640.85;126568;1312;109013;-79
2021/12/28 09:26:26;;;;;;;23.70;13.00;;;;;;;-2.18;70.35;99644.92;126295;1312;108956;-76
2021/12/28 09:29:32;;;;;;;27.90;15.00;;;;;;;-2.19;70.37;99651.83;126351;1312;108884;-75
2021/12/28 09:32:38;;;;;;;22.90;12.60;;;;;;;-2.15;70.30;99656.64;126312;1312;109029;-75
2021/12/28 09:35:43;;;;;;;30.30;16.20;;;;;;;-2.11;70.26;99656.77;126522;1310;109517;-76
2021/12/28 09:38:49;;;;;;;23.00;12.30;;;;;;;-2.06;70.14;99664.13;126499;1311;108601;-77
2021/12/28 09:41:56;;;;;;;21.50;12.00;;;;;;;-2.04;70.04;99651.98;126580;1312;108537;-76
2021/12/28 09:45:02;;;;;;;21.00;11.40;;;;;;;-2.10;70.18;99650.42;126366;1312;108711;-75
2021/12/28 09:48:09;;;;;;;22.30;12.80;;;;;;;-2.15;70.34;99654.20;126467;1311;108731;-77
2021/12/28 09:51:14;;;;;;;31.80;14.90;;;;;;;-2.15;70.40;99648.45;126654;1310;108848;-75
2021/12/28 09:54:27;;;;;;;35.30;16.00;;;;;;;-2.14;70.32;99646.66;126574;1312;106746;-75
2021/12/28 09:57:33;;;;;;;28.30;13.60;;;;;;;-2.04;70.31;99643.81;126581;1311;108837;-74
2021/12/28 10:00:38;;;;;;;21.90;11.70;;;;;;;-1.92;70.13;99639.15;126749;1310;108853;-75
2021/12/28 10:03:44;;;;;;;36.20;17.70;;;;;;;-1.87;70.02;99649.64;126620;1312;108840;-80
2021/12/28 10:06:49;;;;;;;21.20;11.70;;;;;;;-1.83;70.03;99641.05;126420;1311;107628;-78
2021/12/28 10:09:55;;;;;;;21.40;12.50;;;;;;;-1.81;70.06;99641.27;126617;1311;108979;-78
2021/12/28 10:13:02;;;;;;;19.80;11.70;;;;;;;-1.75;70.11;99636.39;126491;1311;107472;-79
2021/12/28 10:16:08;;;;;;;23.70;12.40;;;;;;;-1.76;70.01;99636.30;126662;1310;108681;-81
2021/12/28 10:19:36;;;;;;;23.00;12.30;;;;;;;-1.74;70.00;99638.09;122879;1310;5040609;-79
2021/12/28 10:22:47;;;;;;;22.40;11.00;;;;;;;-1.74;69.96;99636.88;126477;1312;98058;-79
2021/12/28 10:25:54;;;;;;;19.10;11.60;;;;;;;-1.75;69.81;99637.94;126435;1311;99213;-80
2021/12/28 10:29:02;;;;;;;20.20;11.10;;;;;;;-1.73;69.59;99630.71;126682;1312;98015;-80
2021/12/28 10:32:26;;;;;;;18.40;10.70;;;;;;;-1.79;69.44;99629.80;126674;1317;99239;-78
2021/12/28 10:35:33;;;;;;;19.70;10.60;;;;;;;-1.83;69.72;99616.27;126872;1310;98112;-79
2021/12/28 10:38:41;;;;;;;23.90;12.70;;;;;;;-1.85;69.62;99615.70;126808;1310;98136;-79
2021/12/28 10:41:46;;;;;;;21.70;11.50;;;;;;;-1.91;69.38;99621.09;126782;1312;99204;-81
2021/12/28 10:45:01;;;;;;;30.20;12.90;;;;;;;-1.99;69.63;99617.02;126833;1310;98784;-79
2021/12/28 10:48:11;;;;;;;27.40;12.20;;;;;;;-1.99;69.52;99619.09;126481;1311;101331;-77
2021/12/28 10:51:21;;;;;;;69.50;25.50;;;;;;;-1.95;69.41;99610.38;126589;1311;98033;-79
2021/12/28 10:54:27;;;;;;;31.60;15.00;;;;;;;-1.99;69.62;99598.02;126539;1312;98130;-82
2021/12/28 10:57:41;;;;;;;36.70;16.60;;;;;;;-2.00;69.36;99598.77;126569;1311;98041;-80
2021/12/28 11:00:47;;;;;;;32.50;14.10;;;;;;;-1.96;69.66;99604.46;126873;1311;98137;-82
2021/12/28 11:03:55;;;;;;;47.10;20.10;;;;;;;-1.84;69.52;99596.98;126658;1312;98047;-81
2021/12/28 11:07:03;;;;;;;50.00;22.10;;;;;;;-1.81;69.04;99592.80;126496;1312;98022;-71
2021/12/28 11:10:09;;;;;;;108.20;38.60;;;;;;;-1.83;69.19;99585.25;127705;1308;98822;-71
2021/12/28 11:13:19;;;;;;;33.40;15.10;;;;;;;-1.83;69.24;99582.61;126650;1311;98017;-72
2021/12/28 11:16:26;;;;;;;28.20;14.30;;;;;;;-1.82;69.22;99579.63;126869;1312;98011;-69
2021/12/28 11:19:34;;;;;;;39.00;18.70;;;;;;;-1.83;69.02;99572.69;126513;1311;99090;-72
2021/12/28 11:22:39;;;;;;;26.80;13.70;;;;;;;-1.87;69.26;99571.54;126491;1312;98019;-71
2021/12/28 11:25:45;;;;;;;26.40;14.20;;;;;;;-1.84;69.32;99575.39;126409;1310;99243;-70
2021/12/28 11:29:04;;;;;;;28.40;15.40;;;;;;;-1.84;69.29;99578.54;126373;1315;99209;-73
2021/12/28 11:32:17;;;;;;;20.70;11.40;;;;;;;-1.91;69.06;99579.48;126391;1312;98136;-68
2021/12/28 11:35:22;;;;;;;20.50;11.90;;;;;;;-1.97;68.89;99571.95;126550;1312;98899;-69
2021/12/28 11:38:29;;;;;;;20.10;11.40;;;;;;;-2.04;68.80;99573.92;126393;1312;98026;-71
2021/12/28 11:41:34;;;;;;;19.60;11.10;;;;;;;-2.13;69.09;99569.77;126187;1315;98226;-72
2021/12/28 11:44:40;;;;;;;16.40;9.40;;;;;;;-2.19;69.00;99568.85;126329;1311;99048;-74
2021/12/28 11:47:45;;;;;;;22.00;11.50;;;;;;;-2.22;68.99;99572.72;126463;1310;99197;-73
2021/12/28 11:50:51;;;;;;;19.30;11.00;;;;;;;-2.23;69.33;99573.48;126490;1311;98032;-73
2021/12/28 11:54:01;;;;;;;24.10;11.80;;;;;;;-2.28;69.15;99562.92;126541;1311;98012;-76
2021/12/28 11:57:11;;;;;;;32.40;14.30;;;;;;;-2.31;69.44;99554.08;126505;1311;99229;-72
2021/12/28 12:00:19;;;;;;;33.80;13.50;;;;;;;-2.34;69.33;99551.98;126440;1311;98059;-73
2021/12/28 12:03:42;;;;;;;23.70;11.30;;;;;;;-2.28;69.46;99551.99;126475;1312;98313;-75
2021/12/28 12:06:59;;;;;;;;;;;;;;;-2.14;69.45;99549.95;126326;1311;99095;-73
2021/12/28 12:10:11;;;;;;;41.40;15.00;;;;;;;-2.06;69.22;99540.08;126197;1312;98258;-73
2021/12/28 12:13:22;;;;;;;47.70;18.80;;;;;;;-1.97;69.32;99533.63;126328;1311;99222;-72
2021/12/28 12:16:28;;;;;;;29.10;13.20;;;;;;;-1.96;69.04;99528.14;126585;1312;99293;-74
2021/12/28 12:19:50;;;;;;;27.60;13.70;;;;;;;-1.95;68.88;99515.89;126314;1310;98031;-72
2021/12/28 12:22:56;;;;;;;;;;;;;;;-2.00;68.79;99504.70;126487;1312;98017;-73
2021/12/28 12:26:06;;;;;;;23.10;12.80;;;;;;;-2.05;69.12;99508.11;126446;1311;98133;-73
2021/12/28 12:29:22;;;;;;;36.40;14.40;;;;;;;-2.11;69.07;99505.66;126577;1312;99201;-72
2021/12/28 12:33:00;;;;;;;25.90;13.40;;;;;;;-2.15;69.16;99505.20;126690;1312;99200;-73
2021/12/28 12:36:10;;;;;;;18.70;10.40;;;;;;;-2.21;69.28;99503.98;126704;1312;98053;-72
2021/12/28 12:39:16;;;;;;;30.10;14.90;;;;;;;-2.23;69.27;99506.59;126521;1311;98112;-73
2021/12/28 12:42:22;;;;;;;42.30;17.70;;;;;;;-2.23;69.24;99504.48;126648;1311;99200;-72
2021/12/28 12:45:57;;;;;;;31.90;15.40;;;;;;;-2.23;69.31;99503.98;126702;1311;98013;-72
2021/12/28 12:49:13;;;;;;;26.90;13.00;;;;;;;-2.26;69.34;99504.62;126412;1312;99195;-73
2021/12/28 12:52:20;;;;;;;21.20;11.80;;;;;;;-2.30;68.88;99502.13;126423;1310;99255;-67
2021/12/28 12:55:37;;;;;;;20.40;11.40;;;;;;;-2.38;69.30;99506.54;126660;1311;98064;-70
2021/12/28 12:58:45;;;;;;;25.70;13.20;;;;;;;-2.44;69.37;99500.30;126649;1311;99194;-70
2021/12/28 13:02:01;;;;;;;27.10;14.10;;;;;;;-2.49;69.28;99493.59;126611;1312;99169;-67
2021/12/28 13:05:22;;;;;;;29.70;14.00;;;;;;;-2.47;69.56;99497.87;126261;1312;99218;-69
2021/12/28 13:08:28;;;;;;;21.30;10.90;;;;;;;-2.42;69.70;99501.73;126667;1312;99301;-71
2021/12/28 13:11:35;;;;;;;22.80;12.00;;;;;;;-2.33;69.65;99502.46;126565;1310;98079;-73
2021/12/28 13:14:41;;;;;;;24.20;12.60;;;;;;;-2.26;69.62;99505.67;126490;1311;99182;-72
2021/12/28 13:17:48;;;;;;;22.90;11.50;;;;;;;-2.24;69.43;99494.44;126546;1311;99111;-71
2021/12/28 13:20:55;;;;;;;21.80;11.90;;;;;;;-2.25;69.22;99498.64;126586;1312;98035;-70
2021/12/28 13:24:11;;;;;;;24.30;13.50;;;;;;;-2.27;69.43;99490.44;126570;1312;98047;-70
2021/12/28 13:27:19;;;;;;;29.90;15.10;;;;;;;-2.27;69.46;99486.74;126533;1312;99187;-73
2021/12/28 13:30:31;;;;;;;110.20;41.50;;;;;;;-2.26;69.46;99488.10;126552;1315;98036;-72
2021/12/28 13:33:36;;;;;;;167.20;50.70;;;;;;;-2.32;69.41;99484.11;126335;1312;98843;-75
2021/12/28 13:36:51;;;;;;;54.30;22.80;;;;;;;-2.32;69.59;99480.27;126425;1312;98025;-75
2021/12/28 13:40:03;;;;;;;42.20;17.80;;;;;;;-2.34;69.65;99482.14;126526;1312;98034;-75
2021/12/28 13:43:13;;;;;;;58.20;20.20;;;;;;;-2.35;69.70;99484.77;126594;1312;98018;-75
2021/12/28 13:46:18;;;;;;;56.40;20.70;;;;;;;-2.38;69.41;99480.95;126396;1311;98022;-74
2021/12/28 13:49:24;;;;;;;64.00;23.00;;;;;;;-2.38;69.55;99478.88;126362;1312;98103;-76
2021/12/28 13:52:48;;;;;;;50.70;19.80;;;;;;;-2.39;69.79;99476.98;126312;1312;98038;-74
2021/12/28 13:55:57;;;;;;;57.40;22.30;;;;;;;-2.45;69.77;99476.84;126573;1311;98806;-74
2021/12/28 13:59:05;;;;;;;38.00;16.00;;;;;;;-2.49;69.90;99479.48;126541;1312;98372;-71
2021/12/28 14:02:15;;;;;;;27.90;13.10;;;;;;;-2.52;69.76;99473.61;126526;1311;99096;-73
2021/12/28 14:05:21;;;;;;;38.80;16.20;;;;;;;-2.53;69.85;99471.92;126696;1312;98744;-70
2021/12/28 14:08:27;;;;;;;24.50;12.60;;;;;;;-2.48;69.91;99475.47;126705;1312;99312;-70